Time;durP1;ratioP1;P1;durP2;ratioP2;P2;SDS_P1;SDS_P2;PMS_P1;PMS_P2;Temp;Humidity;BMP_temperature;BMP_pressure;BME280_temperature;BME280_humidity;BME280_pressure;Samples;Min_cycle;Max_cycle;Signal;HPM_P1;HPM_P2
2022/06/27 00:00:50;;;;;;;11.38;7.25;;;;;;;22.37;55.76;101409.09;5050684;28;20115;-66
2022/06/27 00:03:17;;;;;;;8.85;7.47;;;;;;;22.38;55.53;101412.69;5050663;28;20049;-66
2022/06/27 00:05:44;;;;;;;8.30;7.40;;;;;;;22.38;55.55;101418.16;5050595;28;20475;-66
2022/06/27 00:08:11;;;;;;;10.73;8.32;;;;;;;22.38;55.52;101419.00;5050783;28;20041;-66
2022/06/27 00:10:39;;;;;;;7.90;7.10;;;;;;;22.38;55.68;101410.81;5050920;28;20029;-66
2022/06/27 00:13:07;;;;;;;8.80;7.28;;;;;;;22.38;55.80;101419.00;5050495;28;20041;-66
2022/06/27 00:15:33;;;;;;;9.85;6.75;;;;;;;22.37;55.60;101419.19;5050541;28;20037;-66
2022/06/27 00:18:00;;;;;;;13.23;7.40;;;;;;;22.39;55.72;101425.34;5049329;28;20045;-66
2022/06/27 00:20:27;;;;;;;12.27;7.85;;;;;;;22.37;55.58;101435.59;5050599;28;20080;-66
2022/06/27 00:22:58;;;;;;;10.02;7.28;;;;;;;22.34;55.61;101433.22;5048537;28;20040;-66
2022/06/27 00:25:25;;;;;;;11.52;8.15;;;;;;;22.33;55.44;101428.75;5031505;28;20049;-66
2022/06/27 00:27:51;;;;;;;9.25;7.75;;;;;;;22.30;55.98;101438.19;5014309;28;20120;-66
2022/06/27 00:30:19;;;;;;;10.30;8.00;;;;;;;22.29;55.73;101449.25;5013217;28;20049;-66
2022/06/27 00:32:48;;;;;;;8.68;7.53;;;;;;;22.27;55.47;101454.91;5016037;28;20100;-66
2022/06/27 00:35:15;;;;;;;9.85;7.72;;;;;;;22.26;55.66;101455.06;5014685;28;20058;-66
2022/06/27 00:37:42;;;;;;;9.15;7.45;;;;;;;22.25;55.94;101465.16;5014921;28;20042;-66
2022/06/27 00:40:09;;;;;;;9.88;8.10;;;;;;;22.26;55.91;101466.88;5026518;28;20073;-66
2022/06/27 00:42:39;;;;;;;11.45;8.70;;;;;;;22.26;55.99;101472.34;5053164;28;20041;-66
2022/06/27 00:45:07;;;;;;;9.35;7.57;;;;;;;22.27;56.04;101474.06;5052839;28;20075;-66
2022/06/27 00:47:33;;;;;;;8.35;7.45;;;;;;;22.29;56.22;101477.47;5053822;28;20029;-66
2022/06/27 00:50:00;;;;;;;9.65;8.15;;;;;;;22.30;55.93;101468.28;5053736;28;20094;-67
2022/06/27 00:52:31;;;;;;;8.45;7.60;;;;;;;22.30;56.48;101468.28;5053189;28;20090;-67
2022/06/27 00:54:58;;;;;;;8.68;7.85;;;;;;;22.29;56.06;101460.19;5053601;28;20037;-66
2022/06/27 00:57:25;;;;;;;9.68;7.47;;;;;;;22.27;56.08;101473.19;5038665;28;20128;-66
2022/06/27 00:59:51;;;;;;;8.32;7.18;;;;;;;22.26;56.04;101460.53;5033796;28;20099;-67
2022/06/27 01:02:19;;;;;;;8.63;7.72;;;;;;;22.25;56.24;101461.56;5032252;28;20041;-67
2022/06/27 01:04:46;;;;;;;9.85;7.93;;;;;;;22.25;56.26;101461.56;5032147;28;20403;-66
2022/06/27 01:07:13;;;;;;;9.75;7.38;;;;;;;22.25;55.99;101459.69;5033586;28;20037;-67
2022/06/27 01:09:42;;;;;;;9.85;7.57;;;;;;;22.25;55.97;101456.09;5033324;28;20439;-66
2022/06/27 01:12:10;;;;;;;9.50;7.45;;;;;;;22.25;56.04;101456.09;5053127;28;20045;-66
2022/06/27 01:14:37;;;;;;;9.95;8.13;;;;;;;22.25;56.34;101453.38;5051981;28;20052;-67
2022/06/27 01:17:04;;;;;;;10.68;7.75;;;;;;;22.24;56.38;101451.66;5052859;28;20498;-67
2022/06/27 01:19:31;;;;;;;10.95;7.80;;;;;;;22.22;56.16;101445.50;5053188;28;20130;-67
2022/06/27 01:21:57;;;;;;;12.07;7.88;;;;;;;22.20;56.17;101452.00;5051708;28;20147;-66
2022/06/27 01:24:27;;;;;;;10.32;7.72;;;;;;;22.18;56.25;101445.84;5051303;28;20047;-66
2022/06/27 01:26:56;;;;;;;11.98;8.23;;;;;;;22.19;56.39;101454.91;5051208;28;20099;-67
2022/06/27 01:29:22;;;;;;;9.02;7.60;;;;;;;22.20;56.27;101448.41;5053148;28;20033;-67
2022/06/27 01:31:50;;;;;;;9.27;8.38;;;;;;;22.17;56.16;101443.25;5051697;28;20131;-66
2022/06/27 01:34:20;;;;;;;8.10;6.88;;;;;;;22.17;56.18;101435.06;5051944;28;20048;-66
2022/06/27 01:36:48;;;;;;;10.65;8.18;;;;;;;22.14;55.99;101433.53;5038767;28;20038;-66
2022/06/27 01:39:19;;;;;;;10.85;7.88;;;;;;;22.09;56.04;101422.22;5047759;28;20064;-66
2022/06/27 01:41:48;;;;;;;9.85;7.60;;;;;;;22.03;56.10;101417.44;5051329;28;20107;-67
2022/06/27 01:44:17;;;;;;;9.15;7.85;;;;;;;22.01;56.18;101432.28;5052662;28;20052;-67
2022/06/27 01:46:53;;;;;;;11.50;8.75;;;;;;;22.01;56.41;101432.28;5052840;28;20064;-66
2022/06/27 01:49:22;;;;;;;11.77;8.18;;;;;;;22.02;56.63;101426.63;5051592;28;20095;-67
2022/06/27 01:51:50;;;;;;;10.48;7.40;;;;;;;22.05;56.66;101411.81;5050707;28;20482;-66
2022/06/27 01:54:21;;;;;;;10.27;8.20;;;;;;;22.04;56.34;101399.16;5038242;28;20046;-66
2022/06/27 01:56:51;;;;;;;10.77;8.05;;;;;;;22.00;56.42;101403.22;5031710;28;20045;-66
2022/06/27 01:59:27;;;;;;;11.80;9.23;;;;;;;21.97;56.44;101403.56;5031220;28;20472;-66
2022/06/27 02:01:58;;;;;;;9.35;8.20;;;;;;;21.95;56.41;101408.34;5031394;28;20518;-66
2022/06/27 02:04:27;;;;;;;9.88;8.45;;;;;;;21.93;56.53;101403.03;5032049;28;20519;-66
2022/06/27 02:06:55;;;;;;;8.90;7.97;;;;;;;21.91;56.82;101410.56;5050904;28;20045;-66
2022/06/27 02:09:22;;;;;;;10.98;7.82;;;;;;;21.88;56.43;101395.34;5050907;28;20044;-66
2022/06/27 02:11:54;;;;;;;10.73;8.60;;;;;;;21.89;56.96;101407.13;5050611;28;20044;-67
2022/06/27 02:14:24;;;;;;;10.23;8.55;;;;;;;21.90;56.64;101406.13;5036110;28;20046;-66
2022/06/27 02:16:52;;;;;;;9.90;8.32;;;;;;;21.93;56.85;101413.13;5030818;28;20045;-66
2022/06/27 02:19:20;;;;;;;10.48;8.18;;;;;;;21.92;56.87;101409.53;5023675;28;20045;-66
2022/06/27 02:21:47;;;;;;;10.80;8.38;;;;;;;21.93;57.00;101404.91;5050528;28;20041;-66
2022/06/27 02:24:16;;;;;;;11.55;8.18;;;;;;;21.91;56.70;101396.88;5050677;28;20056;-66
2022/06/27 02:26:47;;;;;;;9.40;8.40;;;;;;;21.88;56.72;101391.75;5052120;28;20041;-66
2022/06/27 02:29:14;;;;;;;8.55;7.53;;;;;;;21.84;56.77;101382.19;5050286;28;20048;-66
2022/06/27 02:31:50;;;;;;;10.65;8.65;;;;;;;21.80;56.71;101381.66;5051662;28;20033;-66
2022/06/27 02:34:18;;;;;;;8.95;7.95;;;;;;;21.80;57.07;101375.34;5033073;28;20049;-66
2022/06/27 02:36:47;;;;;;;9.93;7.88;;;;;;;21.79;57.20;101374.50;5031819;28;20041;-66
2022/06/27 02:39:18;;;;;;;10.80;8.02;;;;;;;21.81;57.18;101379.78;5031878;28;20072;-67
2022/06/27 02:41:48;;;;;;;10.07;8.80;;;;;;;21.82;57.38;101379.63;5030280;28;20042;-66
2022/06/27 02:44:15;;;;;;;9.63;8.60;;;;;;;21.84;57.26;101380.31;5031216;28;20045;-66
2022/06/27 02:46:42;;;;;;;10.00;8.70;;;;;;;21.86;57.31;101372.78;5038194;28;20098;-66
2022/06/27 02:49:09;;;;;;;10.50;8.27;;;;;;;21.87;57.19;101370.91;5049699;28;20041;-66
2022/06/27 02:51:52;;;;;;;11.98;8.70;;;;;;;21.87;57.11;101365.44;5051677;28;20037;-66
2022/06/27 02:54:24;;;;;;;10.95;8.40;;;;;;;21.85;57.50;101359.28;5050176;28;20049;-66
2022/06/27 02:57:04;;;;;;;11.05;9.05;;;;;;;21.82;57.24;101351.41;5050078;28;20047;-65
2022/06/27 02:59:35;;;;;;;;;;;;;;;21.77;56.96;101351.06;5050524;28;20051;-65
2022/06/27 03:02:05;;;;;;;9.63;8.63;;;;;;;21.77;57.07;101342.88;5048815;28;20027;-65
2022/06/27 03:04:58;;;;;;;10.70;8.63;;;;;;;21.73;56.74;101346.97;5044585;28;20139;-67
2022/06/27 03:07:25;;;;;;;11.45;9.10;;;;;;;21.72;57.06;101348.00;5036620;28;20037;-67
2022/06/27 03:09:53;;;;;;;10.40;9.13;;;;;;;21.69;57.02;101338.25;5029985;28;20045;-66
2022/06/27 03:12:24;;;;;;;10.02;8.57;;;;;;;21.66;57.24;101337.75;5029882;28;20038;-67
2022/06/27 03:14:51;;;;;;;11.25;9.45;;;;;;;21.62;57.02;101336.38;5038594;28;20064;-65
2022/06/27 03:17:18;;;;;;;11.52;8.55;;;;;;;21.60;57.43;101335.69;5049893;28;20047;-66
2022/06/27 03:20:08;;;;;;;12.63;9.10;;;;;;;21.56;57.06;101335.16;5040478;28;20102;-66
2022/06/27 03:22:52;;;;;;;11.15;9.02;;;;;;;21.54;57.34;101343.50;5035159;28;20041;-65
2022/06/27 03:25:19;;;;;;;11.48;8.88;;;;;;;21.53;57.18;101330.00;5049351;28;20044;-66
2022/06/27 03:27:46;;;;;;;13.75;9.40;;;;;;;21.48;57.31;101322.31;5031216;28;20049;-66
2022/06/27 03:30:13;;;;;;;10.57;8.88;;;;;;;21.44;57.25;101320.94;5049657;28;20072;-65
2022/06/27 03:32:42;;;;;;;9.55;8.48;;;;;;;21.39;57.25;101327.94;5049556;28;20499;-66
2022/06/27 03:35:12;;;;;;;12.10;9.55;;;;;;;21.36;57.26;101320.91;5049646;28;20071;-66
2022/06/27 03:37:41;;;;;;;12.98;9.13;;;;;;;21.34;56.96;101322.13;5051407;28;20045;-65
2022/06/27 03:40:08;;;;;;;10.95;8.50;;;;;;;21.31;57.36;101325.19;5049566;28;20048;-66
2022/06/27 03:42:42;;;;;;;11.38;9.13;;;;;;;21.29;57.05;101324.50;5048708;28;20554;-65
2022/06/27 03:45:09;;;;;;;9.52;8.55;;;;;;;21.26;57.21;101322.94;5049417;28;20072;-66
2022/06/27 03:47:54;;;;;;;11.77;9.27;;;;;;;21.23;57.06;101313.22;5049518;28;20045;-66
2022/06/27 03:50:44;;;;;;;9.57;8.48;;;;;;;21.20;57.17;101312.66;5044988;28;20053;-67
2022/06/27 03:53:11;;;;;;;13.55;9.75;;;;;;;21.18;57.13;101317.44;5049349;28;20499;-66
2022/06/27 03:55:38;;;;;;;11.40;8.70;;;;;;;21.15;57.18;101320.50;5047011;28;20045;-66
2022/06/27 03:58:06;;;;;;;9.77;8.75;;;;;;;21.14;56.84;101337.91;5030846;28;20124;-67
2022/06/27 04:00:36;;;;;;;11.07;8.82;;;;;;;21.12;56.86;101338.06;5029523;28;20087;-67
2022/06/27 04:03:07;;;;;;;11.68;9.15;;;;;;;21.09;56.90;101332.94;5033204;28;20515;-67
2022/06/27 04:05:34;;;;;;;9.30;8.23;;;;;;;21.08;57.17;101327.66;5034525;28;20060;-66
2022/06/27 04:08:01;;;;;;;10.52;9.32;;;;;;;21.08;57.13;101324.91;5033218;28;20042;-67
2022/06/27 04:10:31;;;;;;;9.88;8.88;;;;;;;21.05;57.21;101331.56;5042264;28;20040;-67
2022/06/27 04:13:03;;;;;;;11.43;8.65;;;;;;;21.03;56.93;101349.13;5052816;28;20091;-66
2022/06/27 04:15:48;;;;;;;9.40;8.18;;;;;;;20.99;57.00;101358.66;5053454;28;20502;-67
2022/06/27 04:18:34;;;;;;;9.43;8.40;;;;;;;20.94;56.73;101345.50;5014616;28;20053;-66
2022/06/27 04:21:15;;;;;;;10.40;8.75;;;;;;;20.90;57.04;101350.44;5027875;28;20532;-67
2022/06/27 04:23:55;;;;;;;11.73;9.65;;;;;;;20.86;57.08;101359.13;5038283;28;20510;-67
2022/06/27 04:26:43;;;;;;;10.38;9.25;;;;;;;20.79;56.93;101358.03;5052834;28;20044;-67
2022/06/27 04:29:11;;;;;;;11.85;8.95;;;;;;;20.71;57.26;101345.19;5052791;28;20037;-67
2022/06/27 04:31:37;;;;;;;12.13;9.27;;;;;;;20.69;57.42;101339.06;5052420;28;20075;-66
2022/06/27 04:34:12;;;;;;;12.63;9.38;;;;;;;20.70;57.32;101340.75;5053849;28;20391;-66
2022/06/27 04:36:44;;;;;;;11.77;9.70;;;;;;;20.75;57.42;101340.28;5043463;28;20038;-66
2022/06/27 04:39:15;;;;;;;12.27;10.00;;;;;;;20.78;57.79;101323.56;5049704;28;20106;-67
2022/06/27 04:41:52;;;;;;;12.32;10.43;;;;;;;20.76;57.67;101299.16;5052435;28;20418;-66
2022/06/27 04:44:22;;;;;;;14.27;9.77;;;;;;;20.75;58.22;101313.84;5052774;28;20048;-66
2022/06/27 04:46:49;;;;;;;13.25;10.25;;;;;;;20.76;57.98;101312.81;5052545;28;20041;-67
2022/06/27 04:49:45;;;;;;;13.02;11.07;;;;;;;20.83;58.02;101321.22;5052875;28;20049;-66
2022/06/27 04:52:13;;;;;;;12.45;10.15;;;;;;;20.87;58.50;101320.75;5042171;28;20052;-67
2022/06/27 04:54:47;;;;;;;14.35;11.43;;;;;;;20.94;58.19;101297.22;5032632;28;20042;-67
2022/06/27 04:57:13;;;;;;;13.25;10.80;;;;;;;20.94;58.47;101279.97;5033276;28;20111;-66
2022/06/27 04:59:40;;;;;;;11.98;10.77;;;;;;;20.97;58.36;101298.75;5032346;28;20048;-66
2022/06/27 05:02:37;;;;;;;11.68;10.57;;;;;;;21.00;58.41;101316.69;5030982;28;20045;-66
2022/06/27 05:05:04;;;;;;;15.82;11.65;;;;;;;21.02;58.82;101306.47;5012840;28;20531;-66
2022/06/27 05:07:31;;;;;;;13.88;11.00;;;;;;;21.03;58.81;101303.56;5012355;28;20049;-66
2022/06/27 05:09:59;;;;;;;15.27;12.40;;;;;;;21.07;59.07;101295.88;5012441;28;20076;-66
2022/06/27 05:12:28;;;;;;;14.20;11.13;;;;;;;21.11;58.85;101298.13;5044956;28;20038;-67
2022/06/27 05:14:55;;;;;;;12.90;11.48;;;;;;;21.16;59.14;101305.81;5011970;28;20053;-66
2022/06/27 05:17:24;;;;;;;13.90;11.18;;;;;;;21.16;59.11;101300.34;5012416;28;20042;-66
2022/06/27 05:19:51;;;;;;;12.95;11.65;;;;;;;21.17;58.95;101302.06;5021518;28;20072;-66
2022/06/27 05:22:26;;;;;;;13.05;11.25;;;;;;;21.20;59.06;101290.81;5031973;28;20100;-66
2022/06/27 05:24:53;;;;;;;13.85;11.52;;;;;;;21.25;59.22;101288.47;5032883;28;20049;-67
2022/06/27 05:27:22;;;;;;;14.40;11.63;;;;;;;21.32;58.92;101300.41;5032024;28;20072;-67
2022/06/27 05:29:50;;;;;;;16.35;12.48;;;;;;;21.35;59.00;101296.50;5031862;28;20046;-67
2022/06/27 05:32:23;;;;;;;16.90;13.55;;;;;;;21.37;59.17;101300.78;5032092;28;20096;-67
2022/06/27 05:34:53;;;;;;;16.05;14.13;;;;;;;21.41;59.15;101304.03;5048126;28;20055;-67
2022/06/27 05:37:20;;;;;;;20.40;14.85;;;;;;;21.43;59.12;101296.50;5051497;28;20462;-66
2022/06/27 05:39:47;;;;;;;15.77;13.82;;;;;;;21.41;58.94;101288.47;5051471;28;20453;-67
2022/06/27 05:42:21;;;;;;;15.00;13.20;;;;;;;21.39;58.89;101289.69;5051329;28;20069;-67
2022/06/27 05:44:48;;;;;;;15.07;12.65;;;;;;;21.39;58.94;101311.53;5051763;28;20086;-67
2022/06/27 05:47:16;;;;;;;15.07;12.50;;;;;;;21.40;58.95;101344.16;5049937;28;20068;-67
2022/06/27 05:49:55;;;;;;;17.08;13.05;;;;;;;21.43;59.34;101375.75;5051376;28;20454;-67
2022/06/27 05:52:23;;;;;;;14.57;12.45;;;;;;;21.47;59.24;101375.25;5051294;28;20044;-67
2022/06/27 05:54:50;;;;;;;17.08;12.90;;;;;;;21.53;59.21;101376.47;5050903;28;20069;-67
2022/06/27 05:57:19;;;;;;;16.33;13.68;;;;;;;21.56;59.15;101384.34;5051282;28;20056;-67
2022/06/27 05:59:46;;;;;;;15.20;13.60;;;;;;;21.58;59.21;101389.66;5051190;28;20045;-67
2022/06/27 06:02:12;;;;;;;17.90;16.02;;;;;;;21.61;59.51;101397.53;5049006;28;20070;-66
2022/06/27 06:04:50;;;;;;;17.60;15.68;;;;;;;21.64;59.55;101406.25;5051104;28;20099;-66
2022/06/27 06:07:17;;;;;;;17.95;14.45;;;;;;;21.69;59.40;101400.28;5051065;28;20037;-66
2022/06/27 06:09:44;;;;;;;17.38;15.50;;;;;;;21.77;59.59;101403.88;5050957;28;20045;-66
2022/06/27 06:12:12;;;;;;;19.60;15.48;;;;;;;21.83;59.61;101399.63;5050740;28;20045;-67
2022/06/27 06:14:43;;;;;;;16.65;14.52;;;;;;;21.88;59.63;101409.03;5048504;28;20053;-66
2022/06/27 06:17:11;;;;;;;16.45;14.55;;;;;;;21.94;59.70;101421.16;5046011;28;20045;-67
2022/06/27 06:19:38;;;;;;;17.08;15.27;;;;;;;21.98;59.82;101425.28;5051819;28;20041;-67
2022/06/27 06:22:05;;;;;;;18.35;16.33;;;;;;;21.99;59.58;101424.25;5050787;28;20515;-67
2022/06/27 06:24:32;;;;;;;21.80;16.90;;;;;;;22.01;59.30;101429.53;5052180;28;20037;-66
2022/06/27 06:27:05;;;;;;;19.58;17.45;;;;;;;22.01;59.65;101414.00;5049289;28;20445;-66
2022/06/27 06:29:32;;;;;;;20.33;16.15;;;;;;;22.02;59.35;101412.97;5050662;28;20073;-65
2022/06/27 06:32:01;;;;;;;16.48;14.65;;;;;;;22.03;59.63;101419.31;5050644;28;20068;-66
2022/06/27 06:34:33;;;;;;;20.27;16.13;;;;;;;22.03;59.39;101433.84;5050489;28;20413;-66
2022/06/27 06:37:01;;;;;;;16.67;14.95;;;;;;;22.05;59.33;101450.94;5049997;28;20041;-66
2022/06/27 06:39:28;;;;;;;21.88;16.27;;;;;;;22.06;59.26;101449.94;5044617;28;20048;-66
2022/06/27 06:41:57;;;;;;;20.40;15.55;;;;;;;22.07;59.49;101443.44;5031576;28;20044;-67
2022/06/27 06:44:24;;;;;;;20.00;14.25;;;;;;;22.08;59.26;101447.03;5030361;28;20045;-66
2022/06/27 06:47:02;;;;;;;18.55;14.60;;;;;;;22.06;59.18;101440.88;5030384;28;20049;-65
2022/06/27 06:49:46;;;;;;;24.10;15.30;;;;;;;22.05;59.26;101425.47;5030041;28;20051;-64
2022/06/27 06:52:13;;;;;;;16.70;14.43;;;;;;;22.06;59.40;101413.50;5031369;28;20033;-65
2022/06/27 06:54:55;;;;;;;16.20;14.32;;;;;;;22.05;59.02;101398.13;5031281;28;20762;-66
2022/06/27 06:57:22;;;;;;;17.58;15.35;;;;;;;22.06;59.25;101380.69;5032542;28;20107;-64
2022/06/27 06:59:48;;;;;;;16.23;14.60;;;;;;;22.08;59.37;101367.69;5030711;28;20038;-66
2022/06/27 07:02:21;;;;;;;19.05;15.55;;;;;;;22.09;59.56;101342.06;5047417;28;20132;-66
2022/06/27 07:04:49;;;;;;;20.05;16.83;;;;;;;22.13;59.53;101335.22;5051200;28;20053;-65
2022/06/27 07:07:17;;;;;;;17.73;15.48;;;;;;;22.18;59.56;101335.53;5051278;28;20479;-65
2022/06/27 07:09:43;;;;;;;17.52;15.50;;;;;;;22.23;59.29;101340.50;5048069;28;20033;-66
2022/06/27 07:12:19;;;;;;;18.38;15.63;;;;;;;22.29;59.66;101353.47;5031307;28;20037;-66
2022/06/27 07:14:47;;;;;;;21.08;15.80;;;;;;;22.35;59.45;101361.88;5029406;28;20053;-65
2022/06/27 07:17:13;;;;;;;19.88;16.23;;;;;;;22.39;59.26;101371.47;5032350;28;20173;-66
2022/06/27 07:19:43;;;;;;;18.70;15.30;;;;;;;22.42;59.20;101370.25;5037725;28;20116;-65
2022/06/27 07:22:09;;;;;;;27.75;17.50;;;;;;;22.40;59.22;101369.56;5050899;28;20065;-66
2022/06/27 07:24:36;;;;;;;19.60;17.33;;;;;;;22.40;59.27;101364.09;5051154;28;20040;-65
2022/06/27 07:27:03;;;;;;;19.77;17.08;;;;;;;22.40;59.06;101343.06;5051013;28;20043;-65
2022/06/27 07:29:30;;;;;;;20.73;17.10;;;;;;;22.43;59.12;101345.44;5051070;28;20040;-66
2022/06/27 07:31:57;;;;;;;19.88;16.77;;;;;;;22.44;58.98;101373.69;5047379;28;20103;-66
2022/06/27 07:34:24;;;;;;;22.15;17.42;;;;;;;22.46;59.16;101394.38;5031161;28;20111;-65
2022/06/27 07:36:52;;;;;;;18.90;16.67;;;;;;;22.49;59.40;101394.03;5034927;28;20427;-64
2022/06/27 07:39:18;;;;;;;23.55;17.67;;;;;;;22.52;59.30;101392.81;5035280;28;20076;-64
2022/06/27 07:41:45;;;;;;;22.13;17.90;;;;;;;22.59;58.86;101412.16;5034875;28;20045;-64
2022/06/27 07:44:12;;;;;;;25.27;18.33;;;;;;;22.65;58.99;101404.09;5035141;28;20060;-65
2022/06/27 07:46:39;;;;;;;20.40;17.13;;;;;;;22.72;58.97;101385.09;5034957;28;20051;-64
2022/06/27 07:49:06;;;;;;;20.55;18.25;;;;;;;22.76;58.74;101380.97;5035060;28;20038;-64
2022/06/27 07:51:35;;;;;;;20.27;18.13;;;;;;;22.80;58.68;101396.03;5035032;28;20045;-64
2022/06/27 07:54:03;;;;;;;20.90;18.10;;;;;;;22.83;58.48;101401.16;5034932;28;20069;-64
2022/06/27 07:56:30;;;;;;;21.13;16.98;;;;;;;22.86;58.46;101403.56;5033701;28;20037;-64
2022/06/27 07:59:18;;;;;;;19.30;16.48;;;;;;;22.92;58.35;101411.06;5034916;28;20100;-64
2022/06/27 08:01:45;;;;;;;18.52;14.48;;;;;;;22.96;58.37;101420.66;5034078;28;20081;-65
2022/06/27 08:04:14;;;;;;;16.65;13.63;;;;;;;22.99;58.09;101438.63;5034755;28;20040;-67
2022/06/27 08:06:42;;;;;;;17.02;13.43;;;;;;;23.00;57.77;101451.28;5034639;28;20049;-65
2022/06/27 08:09:09;;;;;;;17.20;14.38;;;;;;;23.05;57.93;101462.59;5034688;28;20045;-64
2022/06/27 08:11:38;;;;;;;18.70;16.27;;;;;;;23.12;58.20;101469.09;5034223;28;20092;-65
2022/06/27 08:14:12;;;;;;;19.13;16.77;;;;;;;23.14;58.03;101467.88;5034997;28;20503;-64
2022/06/27 08:16:40;;;;;;;21.77;16.52;;;;;;;23.16;58.01;101472.34;5035184;28;20034;-65
2022/06/27 08:19:09;;;;;;;18.10;16.23;;;;;;;23.17;57.90;101466.69;5053110;28;20045;-65
2022/06/27 08:21:37;;;;;;;19.67;16.33;;;;;;;23.18;57.90;101490.31;5054125;28;20548;-66
2022/06/27 08:24:11;;;;;;;19.55;17.20;;;;;;;23.21;58.02;101489.09;5054401;28;20045;-64
2022/06/27 08:26:38;;;;;;;19.63;16.85;;;;;;;23.27;58.03;101483.78;5049804;28;20052;-65
2022/06/27 08:29:05;;;;;;;23.08;17.25;;;;;;;23.31;58.02;101456.88;5035211;28;20136;-65
2022/06/27 08:31:34;;;;;;;18.67;15.93;;;;;;;23.35;57.84;101450.84;5034102;28;20041;-65
2022/06/27 08:34:02;;;;;;;17.98;15.30;;;;;;;23.41;57.61;101461.09;5046880;28;20061;-67
2022/06/27 08:36:30;;;;;;;22.63;17.15;;;;;;;23.48;57.60;101465.88;5054064;28;20125;-66
2022/06/27 08:39:07;;;;;;;21.85;18.02;;;;;;;23.54;57.17;101481.59;5054029;28;20053;-66
2022/06/27 08:41:35;;;;;;;22.98;16.90;;;;;;;23.57;57.13;101476.66;5052676;28;20045;-66
2022/06/27 08:44:04;;;;;;;18.05;16.15;;;;;;;23.57;57.40;101487.63;5054579;28;20098;-67
2022/06/27 08:46:32;;;;;;;17.98;14.05;;;;;;;23.61;57.01;101491.72;5050380;28;20041;-66
2022/06/27 08:48:59;;;;;;;19.25;15.55;;;;;;;23.64;56.57;101501.47;5033947;28;20037;-66
2022/06/27 08:51:27;;;;;;;17.23;15.50;;;;;;;23.65;56.47;101501.28;5033980;28;20038;-66
2022/06/27 08:53:55;;;;;;;17.90;16.00;;;;;;;23.68;56.38;101500.09;5033913;28;20223;-65
2022/06/27 08:56:24;;;;;;;22.10;14.52;;;;;;;23.70;56.29;101487.91;5033777;28;20069;-66
2022/06/27 08:58:52;;;;;;;16.90;15.13;;;;;;;23.76;56.07;101481.69;5033747;28;20065;-66
2022/06/27 09:01:24;;;;;;;15.40;13.30;;;;;;;23.81;56.11;101480.34;5034357;28;20139;-66
2022/06/27 09:04:06;;;;;;;15.52;13.90;;;;;;;23.85;56.08;101493.50;5033518;28;20470;-66
2022/06/27 09:06:53;;;;;;;19.75;13.90;;;;;;;23.90;55.92;101495.72;5045934;28;20503;-66
2022/06/27 09:09:23;;;;;;;17.88;13.95;;;;;;;24.00;56.30;101493.59;5052289;28;20115;-66
2022/06/27 09:11:49;;;;;;;15.02;12.75;;;;;;;24.07;55.82;101494.56;5053166;28;20055;-66
2022/06/27 09:14:36;;;;;;;17.27;13.65;;;;;;;24.12;55.59;101510.50;5053416;28;20041;-66
2022/06/27 09:17:09;;;;;;;20.42;14.43;;;;;;;24.18;55.36;101504.28;5053168;28;20037;-66
2022/06/27 09:19:46;;;;;;;14.93;13.35;;;;;;;24.19;55.21;101506.00;5053049;28;20414;-66
2022/06/27 09:22:30;;;;;;;20.13;13.93;;;;;;;24.21;55.00;101502.03;5052963;28;20544;-66
2022/06/27 09:25:22;;;;;;;15.23;12.80;;;;;;;24.29;54.79;101495.66;5053123;28;20059;-67
2022/06/27 09:27:51;;;;;;;12.35;10.77;;;;;;;24.37;54.54;101495.59;5053010;28;20037;-66
2022/06/27 09:30:17;;;;;;;14.10;11.38;;;;;;;24.43;54.24;101494.00;5052990;28;20502;-67
2022/06/27 09:32:49;;;;;;;15.48;11.02;;;;;;;24.43;54.13;101489.38;5053028;28;20339;-67
2022/06/27 09:35:39;;;;;;;12.95;11.65;;;;;;;24.43;53.61;101497.59;5036372;28;20065;-67
2022/06/27 09:38:07;;;;;;;16.65;12.75;;;;;;;24.46;53.16;101499.97;5032946;28;20053;-66
2022/06/27 09:40:36;;;;;;;14.88;12.05;;;;;;;24.44;53.37;101509.44;5033152;28;20120;-66
2022/06/27 09:43:09;;;;;;;16.15;12.07;;;;;;;24.43;53.19;101511.34;5033165;28;20037;-66
2022/06/27 09:45:37;;;;;;;15.30;11.98;;;;;;;24.40;53.08;101514.44;5033244;28;20053;-67
2022/06/27 09:48:15;;;;;;;16.75;12.73;;;;;;;24.40;53.01;101519.94;5033300;28;20050;-67
2022/06/27 09:50:44;;;;;;;13.52;11.95;;;;;;;24.40;53.11;101519.94;5033128;28;20069;-66
2022/06/27 09:53:11;;;;;;;14.07;12.30;;;;;;;24.46;52.90;101518.34;5034273;28;20480;-67
2022/06/27 09:55:40;;;;;;;14.20;11.80;;;;;;;24.51;53.12;101497.53;5033739;28;20038;-66
2022/06/27 09:58:07;;;;;;;15.00;11.07;;;;;;;24.59;52.88;101482.91;5032722;28;20037;-66
2022/06/27 10:00:36;;;;;;;17.30;12.52;;;;;;;24.63;52.85;101479.59;5031305;28;20108;-66
2022/06/27 10:03:06;;;;;;;13.32;11.20;;;;;;;24.68;52.28;101482.66;5032773;28;20045;-66
2022/06/27 10:05:41;;;;;;;13.48;10.63;;;;;;;24.76;52.39;101484.47;5033270;28;20555;-66
2022/06/27 10:08:09;;;;;;;14.35;11.05;;;;;;;24.80;52.17;101480.31;5031867;28;20072;-66
2022/06/27 10:11:00;;;;;;;13.38;10.40;;;;;;;24.79;51.87;101486.84;5032468;28;20091;-67
2022/06/27 10:13:31;;;;;;;12.30;11.00;;;;;;;24.83;51.45;101492.81;5049752;28;20037;-66
2022/06/27 10:15:59;;;;;;;15.38;11.68;;;;;;;24.85;51.46;101491.59;5051814;28;20041;-66
2022/06/27 10:18:25;;;;;;;14.35;11.43;;;;;;;24.90;51.32;101480.03;5051661;28;20056;-66
2022/06/27 10:20:52;;;;;;;13.20;10.77;;;;;;;24.94;51.25;101473.13;5052065;28;20048;-66
2022/06/27 10:23:26;;;;;;;13.82;11.32;;;;;;;24.96;50.83;101474.66;5052133;28;20068;-66
2022/06/27 10:25:56;;;;;;;15.32;11.35;;;;;;;25.00;50.70;101469.66;5051607;28;20067;-65
2022/06/27 10:28:23;;;;;;;15.25;11.68;;;;;;;25.05;50.38;101467.19;5051327;28;20048;-65
2022/06/27 10:31:00;;;;;;;12.00;9.02;;;;;;;25.12;50.55;101467.31;5051841;28;20084;-65
2022/06/27 10:33:36;;;;;;;11.57;7.45;;;;;;;25.18;50.35;101463.78;5051718;28;20399;-65
2022/06/27 10:36:14;;;;;;;11.40;8.63;;;;;;;25.26;50.38;101458.19;5051420;28;20131;-65
2022/06/27 10:38:46;;;;;;;9.35;7.80;;;;;;;25.34;50.17;101460.88;5050223;28;20057;-65
2022/06/27 10:41:19;;;;;;;11.52;7.38;;;;;;;25.41;49.66;101447.22;5051500;28;20041;-66
2022/06/27 10:43:53;;;;;;;9.15;7.05;;;;;;;25.47;49.69;101443.69;5049861;28;20037;-66
2022/06/27 10:46:19;;;;;;;8.93;7.20;;;;;;;25.53;49.63;101451.19;5032339;28;20038;-66
2022/06/27 10:48:48;;;;;;;13.10;8.05;;;;;;;25.60;49.28;101447.47;5029753;28;20045;-65
2022/06/27 10:51:17;;;;;;;9.32;8.20;;;;;;;25.69;49.18;101462.00;5031083;28;20199;-66
2022/06/27 10:53:51;;;;;;;9.63;8.05;;;;;;;25.77;49.08;101464.63;5030574;28;20042;-65
2022/06/27 10:56:39;;;;;;;8.85;7.95;;;;;;;25.85;48.91;101467.25;5032885;28;20033;-66
2022/06/27 10:59:27;;;;;;;9.80;7.90;;;;;;;25.98;48.75;101472.06;5030998;28;20526;-66
2022/06/27 11:01:53;;;;;;;9.15;7.82;;;;;;;26.12;48.80;101471.19;5029952;28;20052;-65
2022/06/27 11:04:25;;;;;;;10.00;8.18;;;;;;;26.22;48.30;101465.34;5040625;28;20041;-66
2022/06/27 11:06:59;;;;;;;9.70;8.05;;;;;;;26.32;48.03;101473.28;5039967;28;20038;-67
2022/06/27 11:09:43;;;;;;;10.57;7.78;;;;;;;26.39;47.60;101469.59;5031222;28;20095;-66
2022/06/27 11:12:12;;;;;;;11.60;6.78;;;;;;;26.44;47.35;101471.75;5028845;28;20043;-66
2022/06/27 11:14:57;;;;;;;9.18;6.38;;;;;;;26.48;47.04;101467.53;5030283;28;20119;-66
2022/06/27 11:17:29;;;;;;;11.38;9.02;;;;;;;26.52;47.27;101477.97;5032390;28;20041;-66
2022/06/27 11:20:09;;;;;;;11.27;6.93;;;;;;;26.50;47.11;101474.56;5030684;28;20065;-66
2022/06/27 11:23:01;;;;;;;10.07;6.57;;;;;;;26.50;47.40;101482.81;5030568;28;20049;-66
2022/06/27 11:25:29;;;;;;;7.90;6.25;;;;;;;26.46;47.39;101477.91;5029439;28;20036;-66
2022/06/27 11:27:58;;;;;;;8.55;7.47;;;;;;;26.44;47.16;101483.63;5030897;28;20068;-66
2022/06/27 11:33:18;;;;;;;9.73;7.55;;;;;;;26.35;46.67;101478.44;5030960;28;20064;-66